Time;durP1;ratioP1;P1;durP2;ratioP2;P2;SDS_P1;SDS_P2;PMS_P1;PMS_P2;Temp;Humidity;BMP_temperature;BMP_pressure;BME280_temperature;BME280_humidity;BME280_pressure;Samples;Min_cycle;Max_cycle;Signal;HPM_P1;HPM_P2
2022/10/13 00:00:33;;;;;;;1.55;0.95;;;;;;;;;;5091651;28;20024;-86
2022/10/13 00:03:00;;;;;;;3.03;1.25;;;;;;;;;;5109088;28;20456;-85
2022/10/13 00:05:26;;;;;;;1.13;1.05;;;;;;;;;;5112593;28;20042;-85
2022/10/13 00:07:52;;;;;;;1.58;0.90;;;;;;;;;;5108234;28;20023;-84
2022/10/13 00:10:17;;;;;;;0.45;0.45;;;;;;;;;;5110340;28;20032;-85
2022/10/13 00:12:43;;;;;;;0.77;0.60;;;;;;;;;;5112453;28;20523;-85
2022/10/13 00:15:09;;;;;;;0.93;0.63;;;;;;;;;;5093360;28;20024;-85
2022/10/13 00:17:37;;;;;;;0.47;0.47;;;;;;;;;;5094011;28;21238;-85
2022/10/13 00:20:04;;;;;;;0.93;0.85;;;;;;;;;;5093020;28;20523;-85
2022/10/13 00:22:31;;;;;;;0.70;0.60;;;;;;;;;;5108828;28;20475;-84
2022/10/13 00:24:56;;;;;;;1.38;0.90;;;;;;;;;;5086943;28;20192;-85
2022/10/13 00:27:24;;;;;;;1.85;0.90;;;;;;;;;;5111139;28;20114;-86
2022/10/13 00:29:50;;;;;;;1.40;1.17;;;;;;;;;;5109889;28;20032;-85
2022/10/13 00:32:15;;;;;;;1.45;0.98;;;;;;;;;;5092878;28;20414;-87
2022/10/13 00:34:41;;;;;;;1.77;1.00;;;;;;;;;;5090914;28;20023;-87
2022/10/13 00:37:06;;;;;;;1.42;0.75;;;;;;;;;;5111881;28;20047;-86
2022/10/13 00:39:32;;;;;;;0.40;0.40;;;;;;;;;;5092722;28;20110;-86
2022/10/13 00:41:58;;;;;;;0.93;0.82;;;;;;;;;;5109258;28;20027;-86
2022/10/13 00:44:57;;;;;;;0.98;0.88;;;;;;;;;;5111049;28;20019;-87
2022/10/13 00:47:25;;;;;;;1.23;0.70;;;;;;;;;;5114781;28;20031;-86
2022/10/13 00:49:51;;;;;;;2.55;1.95;;;;;;;;;;5113547;28;20042;-82
2022/10/13 00:52:18;;;;;;;1.02;0.82;;;;;;;;;;5108128;28;20092;-86
2022/10/13 00:54:45;;;;;;;5.13;1.83;;;;;;;;;;5095558;28;20083;-87
2022/10/13 00:57:11;;;;;;;1.23;0.73;;;;;;;;;;5093881;28;20467;-85
2022/10/13 00:59:38;;;;;;;0.93;0.93;;;;;;;;;;5114120;28;20030;-86
2022/10/13 01:02:03;;;;;;;2.00;1.80;;;;;;;;;;5095877;28;20045;-86
2022/10/13 01:04:36;;;;;;;1.27;0.82;;;;;;;;;;5113567;28;20479;-85
2022/10/13 01:07:02;;;;;;;1.65;1.27;;;;;;;;;;5094941;28;20077;-85
2022/10/13 01:09:34;;;;;;;4.28;2.58;;;;;;;;;;5089903;28;20028;-85
2022/10/13 01:12:22;;;;;;;2.03;1.08;;;;;;;;;;5096351;28;20032;-84
2022/10/13 01:14:55;;;;;;;3.15;1.08;;;;;;;;;;5090764;28;21250;-85
2022/10/13 01:17:20;;;;;;;0.35;0.35;;;;;;;;;;5108404;28;20028;-84
2022/10/13 01:20:16;;;;;;;1.73;1.58;;;;;;;;;;5114179;28;20076;-86
2022/10/13 01:23:11;;;;;;;3.35;0.88;;;;;;;;;;5112635;28;20637;-85
2022/10/13 01:25:54;;;;;;;1.88;1.05;;;;;;;;;;5091505;28;20036;-85
2022/10/13 01:28:45;;;;;;;2.60;1.33;;;;;;;;;;5094857;28;20052;-85
2022/10/13 01:31:38;;;;;;;1.63;0.80;;;;;;;;;;5113618;28;20034;-85
2022/10/13 01:34:15;;;;;;;3.83;1.27;;;;;;;;;;5113350;28;20069;-84
2022/10/13 01:36:47;;;;;;;1.40;1.08;;;;;;;;;;5110216;28;20047;-84
2022/10/13 01:39:26;;;;;;;0.88;0.77;;;;;;;;;;5112390;28;20456;-85
2022/10/13 01:42:00;;;;;;;1.63;1.37;;;;;;;;;;5091914;28;20060;-85
2022/10/13 01:44:31;;;;;;;1.25;1.15;;;;;;;;;;5096285;28;20024;-84
2022/10/13 01:46:58;;;;;;;3.78;1.42;;;;;;;;;;5095765;28;20036;-84
2022/10/13 01:49:29;;;;;;;1.00;0.75;;;;;;;;;;5093135;28;20031;-85
2022/10/13 01:51:59;;;;;;;1.15;0.98;;;;;;;;;;5114081;28;20028;-85
2022/10/13 01:54:25;;;;;;;1.52;1.27;;;;;;;;;;5095377;28;20027;-85
2022/10/13 01:56:52;;;;;;;0.65;0.65;;;;;;;;;;5110853;28;20024;-85
2022/10/13 01:59:18;;;;;;;2.78;0.73;;;;;;;;;;5113444;28;20088;-85
2022/10/13 02:02:17;;;;;;;0.88;0.73;;;;;;;;;;5091575;28;20031;-84
2022/10/13 02:05:14;;;;;;;1.17;1.08;;;;;;;;;;5109864;28;20038;-84
2022/10/13 02:07:53;;;;;;;0.90;0.80;;;;;;;;;;5111317;28;20377;-85
2022/10/13 02:10:27;;;;;;;1.40;1.30;;;;;;;;;;5113459;28;20062;-86
2022/10/13 02:12:59;;;;;;;0.68;0.68;;;;;;;;;;5113800;28;20039;-85
2022/10/13 02:15:31;;;;;;;0.82;0.82;;;;;;;;;;5113743;28;20031;-85
2022/10/13 02:17:58;;;;;;;0.93;0.93;;;;;;;;;;5112249;28;20372;-85
2022/10/13 02:20:23;;;;;;;1.55;0.95;;;;;;;;;;5113362;28;20536;-85
2022/10/13 02:22:54;;;;;;;2.38;1.42;;;;;;;;;;5112737;28;20020;-85
2022/10/13 02:25:21;;;;;;;1.35;0.73;;;;;;;;;;5095262;28;20043;-85
2022/10/13 02:27:47;;;;;;;9.43;1.60;;;;;;;;;;5089220;28;20028;-84
2022/10/13 02:30:23;;;;;;;0.68;0.60;;;;;;;;;;5113883;28;20027;-85
2022/10/13 02:32:49;;;;;;;0.40;0.40;;;;;;;;;;5090656;28;20023;-85
2022/10/13 02:35:15;;;;;;;0.93;0.88;;;;;;;;;;5092109;28;20027;-84
2022/10/13 02:37:41;;;;;;;0.77;0.77;;;;;;;;;;5091331;28;20057;-85
2022/10/13 02:40:07;;;;;;;0.60;0.60;;;;;;;;;;5112731;28;20100;-85
2022/10/13 02:42:32;;;;;;;0.63;0.57;;;;;;;;;;5094192;28;20375;-85
2022/10/13 02:44:57;;;;;;;0.63;0.63;;;;;;;;;;5108679;28;20015;-85
2022/10/13 02:47:23;;;;;;;0.38;0.38;;;;;;;;;;5111984;28;20089;-86
2022/10/13 02:49:50;;;;;;;0.40;0.30;;;;;;;;;;5092788;28;20034;-85
2022/10/13 02:52:16;;;;;;;1.08;0.77;;;;;;;;;;5093400;28;20027;-85
2022/10/13 02:54:41;;;;;;;0.70;0.70;;;;;;;;;;5112917;28;20042;-85
2022/10/13 02:57:07;;;;;;;0.77;0.55;;;;;;;;;;5107458;28;20043;-85
2022/10/13 02:59:32;;;;;;;0.80;0.77;;;;;;;;;;5093379;28;20019;-85
2022/10/13 03:01:57;;;;;;;0.80;0.60;;;;;;;;;;5110603;28;20497;-83
2022/10/13 03:04:23;;;;;;;0.68;0.57;;;;;;;;;;5111943;28;20024;-83
2022/10/13 03:06:48;;;;;;;0.43;0.20;;;;;;;;;;5109353;28;20035;-84
2022/10/13 03:09:14;;;;;;;1.52;1.02;;;;;;;;;;5093697;28;20019;-84
2022/10/13 03:11:39;;;;;;;0.90;0.70;;;;;;;;;;5094043;28;20364;-83
2022/10/13 03:14:04;;;;;;;2.20;0.60;;;;;;;;;;5110436;28;20027;-84
2022/10/13 03:16:30;;;;;;;1.83;0.77;;;;;;;;;;5093817;28;20529;-84
2022/10/13 03:18:56;;;;;;;0.60;0.60;;;;;;;;;;5091083;28;20016;-84
2022/10/13 03:21:25;;;;;;;1.77;1.45;;;;;;;;;;5093388;28;20012;-83
2022/10/13 03:23:50;;;;;;;0.43;0.43;;;;;;;;;;5112143;28;20040;-86
2022/10/13 03:26:16;;;;;;;1.75;0.75;;;;;;;;;;5112319;28;20050;-85
2022/10/13 03:28:41;;;;;;;1.77;0.80;;;;;;;;;;5094348;28;20121;-86
2022/10/13 03:31:09;;;;;;;1.50;1.17;;;;;;;;;;5093935;28;20031;-86
2022/10/13 03:33:34;;;;;;;0.82;0.75;;;;;;;;;;5092691;28;20023;-84
2022/10/13 03:36:03;;;;;;;0.20;0.20;;;;;;;;;;5089630;28;20479;-85
2022/10/13 03:38:30;;;;;;;1.75;1.02;;;;;;;;;;5108059;28;20107;-85
2022/10/13 03:40:55;;;;;;;0.98;0.82;;;;;;;;;;5112258;28;20047;-85
2022/10/13 03:43:21;;;;;;;1.25;0.98;;;;;;;;;;5110539;28;20496;-85
2022/10/13 03:45:55;;;;;;;0.93;0.90;;;;;;;;;;5112054;28;20032;-85
2022/10/13 03:48:20;;;;;;;1.05;0.63;;;;;;;;;;5107232;28;20537;-85
2022/10/13 03:50:46;;;;;;;1.20;1.13;;;;;;;;;;5093465;28;20032;-86
2022/10/13 03:53:11;;;;;;;1.15;1.05;;;;;;;;;;5108824;28;20036;-85
2022/10/13 03:55:37;;;;;;;1.70;1.48;;;;;;;;;;5111979;28;20087;-87
2022/10/13 03:58:02;;;;;;;2.28;1.63;;;;;;;;;;5110142;28;20101;-86
2022/10/13 04:00:28;;;;;;;1.48;1.33;;;;;;;;;;5093075;28;20028;-85
2022/10/13 04:02:53;;;;;;;2.15;1.42;;;;;;;;;;5090197;28;20023;-85
2022/10/13 04:05:18;;;;;;;1.80;1.55;;;;;;;;;;5092018;28;20118;-87
2022/10/13 04:07:44;;;;;;;1.13;1.10;;;;;;;;;;5091689;28;20475;-86
2022/10/13 04:10:09;;;;;;;2.10;1.90;;;;;;;;;;5110578;28;20030;-85
2022/10/13 04:12:34;;;;;;;2.47;1.40;;;;;;;;;;5092147;28;20352;-85
2022/10/13 04:15:00;;;;;;;3.38;1.67;;;;;;;;;;5090444;28;20379;-85
2022/10/13 04:17:25;;;;;;;3.35;1.83;;;;;;;;;;5091587;28;20015;-85
2022/10/13 04:19:51;;;;;;;2.00;1.42;;;;;;;;;;5114784;28;20479;-87
2022/10/13 04:22:16;;;;;;;8.60;2.25;;;;;;;;;;5095157;28;20035;-83
2022/10/13 04:24:42;;;;;;;1.80;1.20;;;;;;;;;;5115556;28;20048;-87
2022/10/13 04:27:07;;;;;;;4.00;2.58;;;;;;;;;;5115961;28;20440;-85
2022/10/13 04:29:32;;;;;;;7.97;4.82;;;;;;;;;;5094354;28;20093;-86
2022/10/13 04:31:58;;;;;;;2.88;1.50;;;;;;;;;;5116009;28;20035;-84
2022/10/13 04:34:24;;;;;;;2.20;1.45;;;;;;;;;;5114477;28;20031;-85
2022/10/13 04:36:50;;;;;;;1.95;1.05;;;;;;;;;;5095324;28;20055;-85
2022/10/13 04:39:17;;;;;;;2.10;1.60;;;;;;;;;;5115052;28;20038;-84
2022/10/13 04:41:42;;;;;;;1.00;0.88;;;;;;;;;;5114549;28;20442;-84
2022/10/13 04:44:08;;;;;;;0.85;0.82;;;;;;;;;;5113072;28;20059;-84
2022/10/13 04:46:33;;;;;;;0.98;0.88;;;;;;;;;;5115191;28;20114;-87
2022/10/13 04:48:59;;;;;;;2.15;1.38;;;;;;;;;;5092772;28;20019;-85
2022/10/13 04:51:25;;;;;;;3.50;1.88;;;;;;;;;;5113360;28;20034;-85
2022/10/13 04:53:57;;;;;;;1.63;0.73;;;;;;;;;;5111730;28;20027;-86
2022/10/13 04:56:23;;;;;;;1.73;1.25;;;;;;;;;;5095659;28;20272;-87
2022/10/13 04:58:59;;;;;;;1.90;1.33;;;;;;;;;;5115262;28;20020;-87
2022/10/13 05:01:25;;;;;;;4.95;0.88;;;;;;;;;;5097159;28;20071;-88
2022/10/13 05:03:55;;;;;;;1.02;0.85;;;;;;;;;;5115436;28;20434;-89
2022/10/13 05:06:25;;;;;;;2.13;1.42;;;;;;;;;;5115129;28;20542;-87
2022/10/13 05:08:51;;;;;;;0.63;0.63;;;;;;;;;;5096250;28;20027;-86
2022/10/13 05:11:19;;;;;;;1.83;1.55;;;;;;;;;;5096224;28;20119;-87
2022/10/13 05:13:45;;;;;;;2.10;1.17;;;;;;;;;;5115180;28;20360;-88
2022/10/13 05:16:12;;;;;;;1.77;1.50;;;;;;;;;;5096759;28;20387;-87
2022/10/13 05:18:38;;;;;;;2.13;1.70;;;;;;;;;;5096517;28;20105;-87
2022/10/13 05:21:07;;;;;;;2.45;1.40;;;;;;;;;;5093892;28;20474;-89
2022/10/13 05:23:32;;;;;;;2.17;1.60;;;;;;;;;;5095565;28;20057;-86
2022/10/13 05:26:03;;;;;;;1.40;1.30;;;;;;;;;;5093496;28;20414;-87
2022/10/13 05:28:29;;;;;;;1.17;1.05;;;;;;;;;;5096493;28;20430;-89
2022/10/13 05:30:55;;;;;;;1.08;0.98;;;;;;;;;;5094498;28;20019;-88
2022/10/13 05:33:20;;;;;;;2.45;1.38;;;;;;;;;;5095641;28;20111;-87
2022/10/13 05:35:45;;;;;;;3.63;1.80;;;;;;;;;;5114236;28;20483;-87
2022/10/13 05:38:11;;;;;;;2.95;2.63;;;;;;;;;;5097344;28;20503;-89
2022/10/13 05:40:36;;;;;;;3.17;2.25;;;;;;;;;;5113563;28;20517;-87
2022/10/13 05:43:24;;;;;;;2.20;1.75;;;;;;;;;;5099273;28;20015;-89
2022/10/13 05:45:49;;;;;;;2.97;1.65;;;;;;;;;;5091651;28;20024;-87
2022/10/13 05:48:14;;;;;;;3.38;2.00;;;;;;;;;;5094278;28;20057;-88
2022/10/13 05:50:40;;;;;;;4.93;3.38;;;;;;;;;;5096461;28;20023;-86
2022/10/13 05:53:05;;;;;;;3.30;2.22;;;;;;;;;;5113382;28;20058;-88
2022/10/13 05:55:31;;;;;;;4.32;3.22;;;;;;;;;;5114409;28;20036;-86
2022/10/13 05:57:56;;;;;;;2.67;2.15;;;;;;;;;;5114638;28;20058;-88
2022/10/13 06:00:22;;;;;;;2.53;2.10;;;;;;;;;;5095908;28;20058;-87
2022/10/13 06:03:05;;;;;;;11.52;6.43;;;;;;;;;;5095585;28;20032;-86
2022/10/13 06:05:31;;;;;;;5.97;3.53;;;;;;;;;;5093579;28;20016;-88
2022/10/13 06:07:58;;;;;;;8.45;7.10;;;;;;;;;;5113349;28;20153;-87
2022/10/13 06:10:24;;;;;;;5.28;4.20;;;;;;;;;;5109748;28;20028;-87
2022/10/13 06:12:49;;;;;;;4.43;3.63;;;;;;;;;;5095304;28;20035;-89
2022/10/13 06:15:15;;;;;;;6.13;3.83;;;;;;;;;;5094574;28;20069;-88
2022/10/13 06:17:43;;;;;;;3.80;2.72;;;;;;;;;;5095384;28;20027;-89
2022/10/13 06:20:09;;;;;;;4.35;2.75;;;;;;;;;;5090159;28;20046;-87
2022/10/13 06:22:37;;;;;;;3.83;2.38;;;;;;;;;;5110018;28;20027;-88
2022/10/13 06:25:05;;;;;;;5.25;3.22;;;;;;;;;;5096064;28;20071;-87
2022/10/13 06:27:31;;;;;;;5.55;3.00;;;;;;;;;;5095309;28;20032;-88
2022/10/13 06:29:56;;;;;;;3.30;2.33;;;;;;;;;;5109114;28;20387;-88
2022/10/13 06:32:22;;;;;;;5.32;2.17;;;;;;;;;;5095173;28;20023;-89
2022/10/13 06:34:47;;;;;;;6.60;4.10;;;;;;;;;;5110825;28;20030;-88
2022/10/13 06:37:13;;;;;;;4.55;3.70;;;;;;;;;;5113836;28;20027;-89
2022/10/13 06:39:39;;;;;;;5.32;4.03;;;;;;;;;;5111389;27;20028;-89
2022/10/13 06:42:14;;;;;;;7.90;4.65;;;;;;;;;;5093146;28;20047;-87
2022/10/13 06:44:53;;;;;;;4.72;3.15;;;;;;;;;;5095335;28;20491;-88
2022/10/13 06:48:05;;;;;;;4.70;2.65;;;;;;;;;;5060132;28;20036;-88
2022/10/13 06:50:46;;;;;;;7.38;2.33;;;;;;;;;;5094269;28;20035;-85
2022/10/13 06:53:15;;;;;;;4.40;2.70;;;;;;;;;;5094300;28;20038;-87
2022/10/13 06:59:27;;;;;;;;;;;;;;;;;;;;;
2022/10/13 07:12:35;;;;;;;;;;;;;;;;;;;;;
2022/10/13 07:15:30;;;;;;;11.48;3.70;;;;;;;;;;5110405;28;20023;-88
2022/10/13 07:18:24;;;;;;;3.03;1.98;;;;;;;;;;5093530;28;20046;-89
2022/10/13 07:20:55;;;;;;;4.25;3.00;;;;;;;;;;5093973;28;20027;-88
2022/10/13 07:27:51;;;;;;;;;;;;;;;;;;;;;
2022/10/13 07:35:16;;;;;;;;;;;;;;;;;;;;;
2022/10/13 07:37:42;;;;;;;3.17;2.65;;;;;;;;;;4938969;28;20047;-85
2022/10/13 07:41:06;;;;;;;;;;;;;;;;;;;;;
2022/10/13 07:43:38;;;;;;;4.40;3.20;;;;;;;;;;4989808;28;20049;-86
2022/10/13 07:50:32;;;;;;;2.38;2.17;;;;;;;;;;4973909;28;20062;-87
2022/10/13 07:53:47;;;;;;;3.17;2.85;;;;;;;;;;4957095;28;20042;-88
2022/10/13 08:03:58;;;;;;;4.38;3.88;;;;;;;;;;4900684;29;20040;-89
2022/10/13 08:06:25;;;;;;;6.38;3.70;;;;;;;;;;4845914;29;20222;-87
2022/10/13 08:08:51;;;;;;;10.73;3.78;;;;;;;;;;4871376;29;20043;-90
2022/10/13 08:11:21;;;;;;;5.93;3.58;;;;;;;;;;4922889;29;20035;-91
2022/10/13 08:13:50;;;;;;;5.55;3.00;;;;;;;;;;5003701;28;20106;-89
2022/10/13 08:16:19;;;;;;;4.72;3.03;;;;;;;;;;5073345;28;20024;-87
2022/10/13 08:18:57;;;;;;;4.03;3.40;;;;;;;;;;5077700;28;20024;-86
2022/10/13 08:21:23;;;;;;;7.95;2.95;;;;;;;;;;5076683;28;20025;-87
2022/10/13 08:23:49;;;;;;;8.48;4.22;;;;;;;;;;5076470;28;20028;-87
2022/10/13 08:26:27;;;;;;;6.25;3.10;;;;;;;;;;5076599;28;20039;-89
2022/10/13 08:28:53;;;;;;;4.57;2.95;;;;;;;;;;5090270;28;20051;-89
2022/10/13 08:31:19;;;;;;;7.70;5.10;;;;;;;;;;5096934;28;20111;-88
2022/10/13 08:33:47;;;;;;;8.77;4.93;;;;;;;;;;5099792;28;20051;-90
2022/10/13 08:36:14;;;;;;;8.45;4.82;;;;;;;;;;5100107;28;20055;-87
2022/10/13 08:38:40;;;;;;;6.53;3.10;;;;;;;;;;5099783;28;20032;-88
2022/10/13 08:41:18;;;;;;;5.90;2.65;;;;;;;;;;5097164;28;20031;-90
2022/10/13 08:44:01;;;;;;;9.02;3.67;;;;;;;;;;5095209;28;20024;-89
2022/10/13 08:46:41;;;;;;;4.82;3.65;;;;;;;;;;5095673;28;20081;-91
2022/10/13 08:49:06;;;;;;;4.70;3.28;;;;;;;;;;5096498;28;20380;-88
2022/10/13 08:51:33;;;;;;;3.42;2.65;;;;;;;;;;5098482;28;20032;-90
2022/10/13 08:53:58;;;;;;;7.22;3.38;;;;;;;;;;5098326;28;20028;-89
2022/10/13 08:56:27;;;;;;;4.95;3.28;;;;;;;;;;5096544;28;20073;-88
2022/10/13 08:58:55;;;;;;;6.23;2.93;;;;;;;;;;5096741;28;20073;-87
2022/10/13 09:01:28;;;;;;;5.18;3.80;;;;;;;;;;5090996;28;20043;-89
2022/10/13 09:03:55;;;;;;;4.78;2.95;;;;;;;;;;5096161;28;20063;-88
2022/10/13 09:06:27;;;;;;;5.60;3.20;;;;;;;;;;5095197;28;20032;-87
2022/10/13 09:09:08;;;;;;;4.53;2.78;;;;;;;;;;5093311;28;20032;-88
2022/10/13 09:11:39;;;;;;;7.57;3.15;;;;;;;;;;5093616;28;20024;-90
2022/10/13 09:14:07;;;;;;;5.28;3.55;;;;;;;;;;5097621;28;20396;-86
2022/10/13 09:16:42;;;;;;;2.40;1.95;;;;;;;;;;5092431;28;20024;-88
2022/10/13 09:19:26;;;;;;;5.75;2.72;;;;;;;;;;5087121;28;20068;-89
2022/10/13 09:22:18;;;;;;;6.20;2.50;;;;;;;;;;5089006;28;20080;-87
2022/10/13 09:24:44;;;;;;;4.20;2.92;;;;;;;;;;5091985;28;20433;-86
2022/10/13 09:27:15;;;;;;;4.90;3.33;;;;;;;;;;5091351;28;20024;-88
2022/10/13 09:29:42;;;;;;;5.32;3.20;;;;;;;;;;5111658;28;20028;-87
2022/10/13 09:32:20;;;;;;;6.47;4.07;;;;;;;;;;5094047;28;20467;-90
2022/10/13 09:34:45;;;;;;;5.93;4.07;;;;;;;;;;5109443;28;20027;-89
2022/10/13 09:37:22;;;;;;;4.75;2.92;;;;;;;;;;5114657;28;20024;-88
2022/10/13 09:40:18;;;;;;;6.70;3.53;;;;;;;;;;5110137;28;20432;-88
2022/10/13 09:42:50;;;;;;;4.93;3.03;;;;;;;;;;5095558;28;20124;-89
2022/10/13 09:45:20;;;;;;;4.85;3.47;;;;;;;;;;5110522;28;20070;-88
2022/10/13 09:47:53;;;;;;;3.95;3.15;;;;;;;;;;5110814;28;20486;-87
2022/10/13 09:50:26;;;;;;;6.57;3.58;;;;;;;;;;5091710;28;20037;-88
2022/10/13 09:52:52;;;;;;;8.52;4.15;;;;;;;;;;5107180;28;20037;-87
2022/10/13 09:55:32;;;;;;;4.45;2.83;;;;;;;;;;5095143;28;20027;-86
2022/10/13 09:58:05;;;;;;;5.20;3.47;;;;;;;;;;5107154;28;20018;-83
2022/10/13 10:00:31;;;;;;;5.88;3.17;;;;;;;;;;5110783;28;20024;-86
2022/10/13 10:03:11;;;;;;;6.68;3.95;;;;;;;;;;5109413;28;20038;-87
2022/10/13 10:05:54;;;;;;;5.35;3.80;;;;;;;;;;5113413;28;20051;-86
2022/10/13 10:08:33;;;;;;;4.80;3.47;;;;;;;;;;5108912;28;20879;-87
2022/10/13 10:11:02;;;;;;;3.95;3.03;;;;;;;;;;5093329;28;20455;-85
2022/10/13 10:13:30;;;;;;;5.47;3.22;;;;;;;;;;5111609;28;20039;-85
2022/10/13 10:16:04;;;;;;;9.35;3.53;;;;;;;;;;5113330;27;20403;-84
2022/10/13 10:18:37;;;;;;;5.35;3.13;;;;;;;;;;5111304;28;20031;-87
2022/10/13 10:21:26;;;;;;;8.27;3.42;;;;;;;;;;5109673;28;20020;-85
2022/10/13 10:24:15;;;;;;;10.10;3.80;;;;;;;;;;5110758;28;20058;-87
2022/10/13 10:26:54;;;;;;;7.53;4.45;;;;;;;;;;5091937;28;20395;-85
2022/10/13 10:29:31;;;;;;;5.80;3.00;;;;;;;;;;5093366;28;20091;-86
2022/10/13 10:32:15;;;;;;;5.53;2.92;;;;;;;;;;5094122;28;20052;-86
2022/10/13 10:34:43;;;;;;;5.65;3.33;;;;;;;;;;5110049;28;20026;-86
2022/10/13 10:37:18;;;;;;;5.93;3.00;;;;;;;;;;5094843;28;20842;-86
2022/10/13 10:39:55;;;;;;;5.93;3.15;;;;;;;;;;5108847;28;20038;-87
2022/10/13 10:42:43;;;;;;;4.88;3.42;;;;;;;;;;5092530;28;20028;-86
2022/10/13 10:45:25;;;;;;;3.53;2.50;;;;;;;;;;5110836;28;20030;-85
2022/10/13 10:47:58;;;;;;;4.93;3.00;;;;;;;;;;5106193;28;20035;-87
2022/10/13 10:50:23;;;;;;;5.95;3.95;;;;;;;;;;5109434;28;20024;-84
2022/10/13 10:53:12;;;;;;;5.82;3.80;;;;;;;;;;5111500;28;20024;-86
2022/10/13 10:56:02;;;;;;;3.97;2.73;;;;;;;;;;5110250;28;20023;-86
2022/10/13 10:58:30;;;;;;;;;;;;;;;;;;5112837;28;20459;-87
2022/10/13 11:01:35;;;;;;;4.53;2.15;;;;;;;;;;5094855;28;19980;-87
2022/10/13 11:04:31;;;;;;;6.80;2.80;;;;;;;;;;5079793;28;20513;-87
2022/10/13 11:06:56;;;;;;;6.07;4.13;;;;;;;;;;5094034;28;20031;-86
2022/10/13 11:09:49;;;;;;;7.93;2.78;;;;;;;;;;5110837;28;20462;-87
2022/10/13 11:12:20;;;;;;;4.78;2.67;;;;;;;;;;5065855;28;20032;-86
2022/10/13 11:14:45;;;;;;;6.15;3.17;;;;;;;;;;5091485;28;20033;-85
2022/10/13 11:17:32;;;;;;;5.80;3.33;;;;;;;;;;5092993;28;20495;-88
2022/10/13 11:19:58;;;;;;;7.82;3.67;;;;;;;;;;5109792;28;20114;-87
2022/10/13 11:22:30;;;;;;;4.50;2.75;;;;;;;;;;5092497;28;20046;-83
2022/10/13 11:25:01;;;;;;;3.15;1.98;;;;;;;;;;5089827;28;20030;-85
2022/10/13 11:27:38;;;;;;;4.97;2.70;;;;;;;;;;5090712;28;20052;-85
2022/10/13 11:30:25;;;;;;;4.78;3.38;;;;;;;;;;5092293;28;20062;-86
2022/10/13 11:32:56;;;;;;;7.43;5.07;;;;;;;;;;5107912;28;20151;-85
2022/10/13 11:35:25;;;;;;;12.40;7.78;;;;;;;;;;5111332;28;20479;-85
2022/10/13 11:38:09;;;;;;;9.88;5.55;;;;;;;;;;5091046;28;20036;-86
2022/10/13 11:41:04;;;;;;;4.38;2.88;;;;;;;;;;5111562;28;20063;-85
2022/10/13 11:43:52;;;;;;;5.28;3.42;;;;;;;;;;5093609;28;20023;-86
2022/10/13 11:46:31;;;;;;;4.13;3.15;;;;;;;;;;5110277;28;20027;-87
2022/10/13 11:49:02;;;;;;;6.53;3.75;;;;;;;;;;5094007;28;20484;-86
2022/10/13 11:51:49;;;;;;;4.45;2.88;;;;;;;;;;5092204;28;20031;-87
2022/10/13 11:54:18;;;;;;;6.20;1.92;;;;;;;;;;5092178;28;20027;-87
2022/10/13 11:56:49;;;;;;;4.55;2.80;;;;;;;;;;5109924;28;20031;-86
2022/10/13 11:59:33;;;;;;;6.80;2.83;;;;;;;;;;5094163;28;20039;-87
2022/10/13 12:02:12;;;;;;;3.90;2.60;;;;;;;;;;5092158;28;20030;-86
2022/10/13 12:04:39;;;;;;;3.60;2.20;;;;;;;;;;5093928;28;20024;-87
2022/10/13 12:07:08;;;;;;;6.32;4.05;;;;;;;;;;5093408;28;20031;-87
2022/10/13 12:09:47;;;;;;;4.15;2.70;;;;;;;;;;5110035;28;20449;-86
2022/10/13 12:12:16;;;;;;;4.32;3.35;;;;;;;;;;5112528;28;20464;-86
2022/10/13 12:14:46;;;;;;;5.07;2.42;;;;;;;;;;5111989;28;20383;-86
2022/10/13 12:17:40;;;;;;;3.78;2.70;;;;;;;;;;5109204;28;20028;-86
2022/10/13 12:20:27;;;;;;;3.28;2.40;;;;;;;;;;5093799;28;20023;-87
2022/10/13 12:22:54;;;;;;;4.57;2.35;;;;;;;;;;5111715;28;20016;-85
2022/10/13 12:25:23;;;;;;;6.43;3.90;;;;;;;;;;5111229;28;20026;-86
2022/10/13 12:27:52;;;;;;;7.82;5.03;;;;;;;;;;5111660;28;20048;-86
2022/10/13 12:30:34;;;;;;;8.85;5.82;;;;;;;;;;5112760;28;20098;-86
2022/10/13 12:33:00;;;;;;;5.68;3.55;;;;;;;;;;5108696;28;20028;-85
2022/10/13 12:35:28;;;;;;;5.85;3.05;;;;;;;;;;5109339;28;20004;-85
2022/10/13 12:37:59;;;;;;;4.97;2.92;;;;;;;;;;5111253;28;20475;-86
2022/10/13 12:40:26;;;;;;;6.50;2.50;;;;;;;;;;5116878;28;20094;-86
2022/10/13 12:42:52;;;;;;;4.10;2.42;;;;;;;;;;5096144;28;20085;-85
2022/10/13 12:45:31;;;;;;;3.63;2.30;;;;;;;;;;5116110;28;20023;-85
2022/10/13 12:47:57;;;;;;;5.53;3.05;;;;;;;;;;5095425;28;20073;-86
2022/10/13 12:50:35;;;;;;;6.28;3.05;;;;;;;;;;5116311;28;20035;-87
2022/10/13 12:53:07;;;;;;;5.35;3.20;;;;;;;;;;5089603;28;20024;-87
2022/10/13 12:55:33;;;;;;;4.40;2.65;;;;;;;;;;5096609;28;20035;-86
2022/10/13 12:57:59;;;;;;;15.10;2.75;;;;;;;;;;5116148;28;20022;-86
2022/10/13 13:00:27;;;;;;;4.13;2.30;;;;;;;;;;5114317;28;20040;-86
2022/10/13 13:02:56;;;;;;;2.60;1.90;;;;;;;;;;5098030;28;20019;-87
2022/10/13 13:05:35;;;;;;;4.22;2.05;;;;;;;;;;5116538;28;20026;-84
2022/10/13 13:08:02;;;;;;;4.80;2.47;;;;;;;;;;5091961;28;20024;-86
2022/10/13 13:10:28;;;;;;;4.28;2.65;;;;;;;;;;5097680;28;20460;-85
2022/10/13 13:12:55;;;;;;;4.90;2.88;;;;;;;;;;5096882;28;20023;-87
2022/10/13 13:15:23;;;;;;;4.15;2.45;;;;;;;;;;5100005;28;20028;-88
2022/10/13 13:17:49;;;;;;;3.67;2.72;;;;;;;;;;5097433;28;20027;-85
2022/10/13 13:20:27;;;;;;;3.70;2.17;;;;;;;;;;5107625;28;20494;-84
2022/10/13 13:22:53;;;;;;;3.70;2.35;;;;;;;;;;5115346;28;20042;-86
2022/10/13 13:25:19;;;;;;;5.43;2.42;;;;;;;;;;5097421;28;20023;-85
2022/10/13 13:27:45;;;;;;;4.82;3.05;;;;;;;;;;5117351;28;20044;-87
2022/10/13 13:30:13;;;;;;;5.18;2.67;;;;;;;;;;5101323;28;20029;-88
2022/10/13 13:32:39;;;;;;;3.17;1.92;;;;;;;;;;5098455;28;20038;-88
2022/10/13 13:35:05;;;;;;;2.92;1.80;;;;;;;;;;5101047;28;20372;-88
2022/10/13 13:37:36;;;;;;;5.13;2.63;;;;;;;;;;5118422;28;20043;-87
2022/10/13 13:40:02;;;;;;;5.05;2.83;;;;;;;;;;5118458;28;20023;-89
2022/10/13 13:42:28;;;;;;;2.95;2.05;;;;;;;;;;5119380;28;20023;-90
2022/10/13 13:44:54;;;;;;;3.92;2.30;;;;;;;;;;5098012;28;20033;-87
2022/10/13 13:47:24;;;;;;;8.38;2.08;;;;;;;;;;5099581;28;20035;-86
2022/10/13 13:49:52;;;;;;;7.10;2.60;;;;;;;;;;5118497;28;20020;-87
2022/10/13 13:52:18;;;;;;;2.83;2.00;;;;;;;;;;5095416;28;20080;-86
2022/10/13 13:54:44;;;;;;;3.80;2.75;;;;;;;;;;5114981;28;20023;-86
2022/10/13 13:57:12;;;;;;;4.78;2.22;;;;;;;;;;5094889;28;20034;-86
2022/10/13 13:59:41;;;;;;;3.60;2.28;;;;;;;;;;5114994;28;20063;-86
2022/10/13 14:02:15;;;;;;;1.83;1.73;;;;;;;;;;5114658;28;20045;-87
2022/10/13 14:04:43;;;;;;;3.05;2.45;;;;;;;;;;5113796;28;20115;-86
2022/10/13 14:07:09;;;;;;;4.75;2.25;;;;;;;;;;5094739;28;20028;-88
2022/10/13 14:09:34;;;;;;;4.00;2.35;;;;;;;;;;5115443;28;20106;-86
2022/10/13 14:12:00;;;;;;;3.72;2.22;;;;;;;;;;5098535;28;20091;-86
2022/10/13 14:14:25;;;;;;;3.67;2.72;;;;;;;;;;5094986;28;20239;-86
2022/10/13 14:16:51;;;;;;;5.38;2.60;;;;;;;;;;5094686;28;21379;-89
2022/10/13 14:19:16;;;;;;;1.65;1.50;;;;;;;;;;5115044;28;20043;-86
2022/10/13 14:21:44;;;;;;;2.85;1.80;;;;;;;;;;5097506;28;20027;-86
2022/10/13 14:24:10;;;;;;;3.80;2.20;;;;;;;;;;5116959;28;20023;-88
2022/10/13 14:26:36;;;;;;;1.98;1.50;;;;;;;;;;5115779;27;20378;-86
2022/10/13 14:29:01;;;;;;;2.92;1.48;;;;;;;;;;5114726;28;20082;-87
2022/10/13 14:31:27;;;;;;;3.40;1.85;;;;;;;;;;5093672;28;20035;-85
2022/10/13 14:33:55;;;;;;;4.28;1.55;;;;;;;;;;5096117;28;20027;-83
2022/10/13 14:36:20;;;;;;;3.03;1.35;;;;;;;;;;5109399;28;20114;-84
2022/10/13 14:38:46;;;;;;;2.72;1.48;;;;;;;;;;5113771;28;20098;-87
2022/10/13 14:41:14;;;;;;;2.75;1.80;;;;;;;;;;5114291;28;20494;-86
2022/10/13 14:43:39;;;;;;;1.77;1.30;;;;;;;;;;5093050;28;20039;-87
2022/10/13 14:46:05;;;;;;;1.95;1.30;;;;;;;;;;5095184;28;20387;-89
2022/10/13 14:48:35;;;;;;;1.45;0.88;;;;;;;;;;5092251;28;20037;-86
2022/10/13 14:51:07;;;;;;;0.77;0.70;;;;;;;;;;5110481;28;20051;-86
2022/10/13 14:53:34;;;;;;;1.33;1.23;;;;;;;;;;5094119;28;20388;-86
2022/10/13 14:56:00;;;;;;;2.60;1.25;;;;;;;;;;5111865;28;20448;-85
2022/10/13 14:58:26;;;;;;;1.55;1.17;;;;;;;;;;5111627;28;20123;-87
2022/10/13 15:00:52;;;;;;;1.70;1.13;;;;;;;;;;5111065;28;20027;-84
2022/10/13 15:03:18;;;;;;;1.02;0.82;;;;;;;;;;5111433;28;20387;-85
2022/10/13 15:05:43;;;;;;;2.03;0.85;;;;;;;;;;5111526;28;20125;-85
2022/10/13 15:08:09;;;;;;;1.45;1.00;;;;;;;;;;5111224;28;20042;-84
2022/10/13 15:10:34;;;;;;;0.80;0.70;;;;;;;;;;5107040;28;20035;-84
2022/10/13 15:13:00;;;;;;;1.63;1.10;;;;;;;;;;5093223;28;20046;-85
2022/10/13 15:15:25;;;;;;;1.17;0.85;;;;;;;;;;5090676;28;20024;-83
2022/10/13 15:17:50;;;;;;;0.93;0.50;;;;;;;;;;5107302;28;20020;-84
2022/10/13 15:20:16;;;;;;;1.23;1.02;;;;;;;;;;5103905;28;20016;-84
2022/10/13 15:22:41;;;;;;;1.15;0.70;;;;;;;;;;5088933;28;20116;-84
2022/10/13 15:25:09;;;;;;;1.17;1.05;;;;;;;;;;5089909;28;20027;-85
2022/10/13 15:27:35;;;;;;;1.27;0.60;;;;;;;;;;5091001;28;20043;-84
2022/10/13 15:30:01;;;;;;;0.80;0.80;;;;;;;;;;5092040;28;20038;-86
2022/10/13 15:32:26;;;;;;;1.08;0.70;;;;;;;;;;5089502;28;20024;-85
2022/10/13 15:34:52;;;;;;;2.03;1.30;;;;;;;;;;5110250;28;20058;-85
2022/10/13 15:37:17;;;;;;;0.82;0.73;;;;;;;;;;5106883;28;20085;-85
2022/10/13 15:39:42;;;;;;;0.73;0.73;;;;;;;;;;5106413;28;20427;-83
2022/10/13 15:42:09;;;;;;;3.70;0.93;;;;;;;;;;5089276;28;20027;-86
2022/10/13 15:44:34;;;;;;;0.52;0.45;;;;;;;;;;5110930;28;20063;-85